createdAt,value
2023-04-02T00:00:46.112Z,25.00
2023-04-02T00:01:46.164Z,14.30
2023-04-02T00:02:46.153Z,2.94
2023-04-02T00:03:46.234Z,6.85
2023-04-02T00:04:46.140Z,24.43
2023-04-02T00:05:46.154Z,29.36
2023-04-02T00:06:46.120Z,45.41
2023-04-02T00:07:46.128Z,31.80
2023-04-02T00:08:46.122Z,42.13
2023-04-02T00:09:46.168Z,56.81
2023-04-02T00:10:46.138Z,80.14
2023-04-02T00:11:46.123Z,61.37
2023-04-02T00:12:46.146Z,9.92
2023-04-02T00:13:46.120Z,27.27
2023-04-02T00:14:46.172Z,24.32
2023-04-02T00:15:46.115Z,116.57
2023-04-02T00:16:46.244Z,168.01
2023-04-02T00:17:46.218Z,132.84
2023-04-02T00:18:46.139Z,86.44
2023-04-02T00:19:46.120Z,106.50
2023-04-02T00:20:46.120Z,111.84
2023-04-02T00:21:46.119Z,107.15
2023-04-02T00:22:47.268Z,92.41
2023-04-02T00:23:46.155Z,75.01
2023-04-02T00:24:46.126Z,71.94
2023-04-02T00:25:46.131Z,60.29
2023-04-02T00:26:46.118Z,84.14
2023-04-02T00:27:46.146Z,88.60
2023-04-02T00:28:46.165Z,53.32
2023-04-02T00:29:46.118Z,46.76
2023-04-02T00:30:46.117Z,31.05
2023-04-02T00:31:46.203Z,33.91
2023-04-02T00:32:47.320Z,25.08
2023-04-02T00:33:46.189Z,25.00
2023-04-02T00:34:46.117Z,33.16
2023-04-02T00:35:46.126Z,42.74
2023-04-02T00:36:46.127Z,26.57
2023-04-02T00:37:46.126Z,24.77
2023-04-02T00:38:47.552Z,17.54
2023-04-02T00:39:46.161Z,19.33
2023-04-02T00:40:46.128Z,25.00
2023-04-02T00:41:46.119Z,25.89
2023-04-02T00:42:46.141Z,37.51
2023-04-02T00:43:46.113Z,28.42
2023-04-02T00:44:46.146Z,30.27
2023-04-02T00:45:46.139Z,41.83
2023-04-02T00:46:46.114Z,58.29
2023-04-02T00:47:46.155Z,50.97
2023-04-02T00:48:46.115Z,60.09
2023-04-02T00:49:46.111Z,156.17
2023-04-02T00:50:46.121Z,178.05
2023-04-02T00:51:46.131Z,197.63
2023-04-02T00:52:46.146Z,156.28
2023-04-02T00:53:46.130Z,180.44
2023-04-02T00:54:46.137Z,129.82
2023-04-02T00:55:46.157Z,59.72
2023-04-02T00:56:46.182Z,17.12
2023-04-02T00:57:46.179Z,94.39
2023-04-02T00:58:46.162Z,117.03
2023-04-02T00:59:46.180Z,119.88
2023-04-02T01:00:46.203Z,145.78
2023-04-02T01:01:46.306Z,169.04
2023-04-02T01:02:46.253Z,175.07
2023-04-02T01:03:46.280Z,157.38
2023-04-02T01:04:46.216Z,116.15
2023-04-02T01:05:46.233Z,109.93
2023-04-02T01:06:46.311Z,117.45
2023-04-02T01:07:46.228Z,107.17
2023-04-02T01:08:46.248Z,112.66
2023-04-02T01:09:46.267Z,65.77
2023-04-02T01:10:46.246Z,71.61
2023-04-02T01:11:46.256Z,67.29
2023-04-02T01:12:46.286Z,65.09
2023-04-02T01:13:46.255Z,17.09
2023-04-02T01:14:46.263Z,79.92
2023-04-02T01:15:46.309Z,169.21
2023-04-02T01:16:46.335Z,196.46
2023-04-02T01:17:46.386Z,181.12
2023-04-02T01:18:46.384Z,125.96
2023-04-02T01:19:46.336Z,95.42
2023-04-02T01:20:46.354Z,80.45
2023-04-02T01:21:46.410Z,72.98
2023-04-02T01:22:46.491Z,51.70
2023-04-02T01:23:46.545Z,51.44
2023-04-02T01:24:46.619Z,40.90
2023-04-02T01:25:46.657Z,31.52
2023-04-02T01:26:46.698Z,32.54
2023-04-02T01:27:46.763Z,29.64
2023-04-02T01:28:46.807Z,88.63
2023-04-02T01:29:46.849Z,126.73
2023-04-02T01:30:46.908Z,137.93
2023-04-02T01:31:46.983Z,109.19
2023-04-02T01:32:47.108Z,90.12
2023-04-02T01:33:47.070Z,102.17
2023-04-02T01:34:47.170Z,35.32
2023-04-02T01:35:47.271Z,28.95
2023-04-02T01:36:47.297Z,67.61
2023-04-02T01:37:47.358Z,94.74
2023-04-02T01:38:47.403Z,125.13
2023-04-02T01:39:47.457Z,125.54
2023-04-02T01:40:47.522Z,123.87
2023-04-02T01:41:47.566Z,114.93
2023-04-02T01:42:47.622Z,94.76
2023-04-02T01:43:47.692Z,34.61
2023-04-02T01:44:47.747Z,2.98
2023-04-02T01:45:47.812Z,27.93
2023-04-02T01:46:47.916Z,33.56
2023-04-02T01:47:47.939Z,46.83
2023-04-02T01:48:47.969Z,124.26
2023-04-02T01:49:47.984Z,163.27
2023-04-02T01:50:48.037Z,172.08
2023-04-02T01:51:48.054Z,161.80
2023-04-02T01:52:48.082Z,158.41
2023-04-02T01:53:48.122Z,166.81
2023-04-02T01:54:48.160Z,184.11
2023-04-02T01:55:48.181Z,196.31
2023-04-02T01:56:48.216Z,193.50
2023-04-02T01:57:48.230Z,206.94
2023-04-02T01:58:48.304Z,243.02
2023-04-02T01:59:48.343Z,217.33
2023-04-02T02:00:48.393Z,210.39
2023-04-02T02:01:48.516Z,193.58
2023-04-02T02:02:48.584Z,169.44
2023-04-02T02:03:48.608Z,151.60
2023-04-02T02:04:48.683Z,150.51
2023-04-02T02:05:48.694Z,141.35
2023-04-02T02:06:48.729Z,136.48
2023-04-02T02:07:48.778Z,151.97
2023-04-02T02:08:48.878Z,169.00
2023-04-02T02:09:48.890Z,158.08
2023-04-02T02:10:48.936Z,154.37
2023-04-02T02:11:48.978Z,166.21
2023-04-02T02:12:49.023Z,171.33
2023-04-02T02:13:49.072Z,180.77
2023-04-02T02:14:49.108Z,195.59
2023-04-02T02:15:49.167Z,195.24
2023-04-02T02:16:49.308Z,200.05
2023-04-02T02:17:49.320Z,198.55
2023-04-02T02:18:49.367Z,208.07
2023-04-02T02:19:49.439Z,237.11
2023-04-02T02:20:49.485Z,244.35
2023-04-02T02:21:49.513Z,273.89
2023-04-02T02:22:49.623Z,302.53
2023-04-02T02:23:49.653Z,313.07
2023-04-02T02:24:49.708Z,315.89
2023-04-02T02:25:49.767Z,297.91
2023-04-02T02:26:49.815Z,280.27
2023-04-02T02:27:49.875Z,267.71
2023-04-02T02:28:49.933Z,261.74
2023-04-02T02:29:49.953Z,249.35
2023-04-02T02:30:50.002Z,245.23
2023-04-02T02:31:50.129Z,236.22
2023-04-02T02:32:50.108Z,225.79
2023-04-02T02:33:50.139Z,233.25
2023-04-02T02:34:50.182Z,241.56
2023-04-02T02:35:50.231Z,248.34
2023-04-02T02:36:50.277Z,235.44
2023-04-02T02:37:50.311Z,215.90
2023-04-02T02:38:50.390Z,222.60
2023-04-02T02:39:50.425Z,233.40
2023-04-02T02:40:50.525Z,233.26
2023-04-02T02:41:50.582Z,223.78
2023-04-02T02:42:50.672Z,229.97
2023-04-02T02:43:50.734Z,242.19
2023-04-02T02:44:50.812Z,249.69
2023-04-02T02:45:50.906Z,249.97
2023-04-02T02:46:50.909Z,250.05
2023-04-02T02:47:50.999Z,240.89
2023-04-02T02:48:51.047Z,230.18
2023-04-02T02:49:51.123Z,236.63
2023-04-02T02:50:51.190Z,242.19
2023-04-02T02:51:51.256Z,244.46
2023-04-02T02:52:51.357Z,250.63
2023-04-02T02:53:51.360Z,248.34
2023-04-02T02:54:51.412Z,247.92
2023-04-02T02:55:51.454Z,230.71
2023-04-02T02:56:51.524Z,203.27
2023-04-02T02:57:51.569Z,189.60
2023-04-02T02:58:51.605Z,180.61
2023-04-02T02:59:51.665Z,179.44
2023-04-02T03:00:51.722Z,188.83
2023-04-02T03:01:51.787Z,201.19
2023-04-02T03:02:51.996Z,212.16
2023-04-02T03:03:51.985Z,222.27
2023-04-02T03:04:51.928Z,236.19
2023-04-02T03:05:51.973Z,252.63
2023-04-02T03:06:52.016Z,251.20
2023-04-02T03:07:52.057Z,257.70
2023-04-02T03:08:52.143Z,257.97
2023-04-02T03:09:52.165Z,253.22
2023-04-02T03:10:52.233Z,249.70
2023-04-02T03:11:52.277Z,246.00
2023-04-02T03:12:52.342Z,238.27
2023-04-02T03:13:52.415Z,220.65
2023-04-02T03:14:52.483Z,216.99
2023-04-02T03:15:52.598Z,206.75
2023-04-02T03:16:52.620Z,200.97
2023-04-02T03:17:52.758Z,205.48
2023-04-02T03:18:52.755Z,204.25
2023-04-02T03:19:52.820Z,196.48
2023-04-02T03:20:52.891Z,201.53
2023-04-02T03:21:52.943Z,190.75
2023-04-02T03:22:53.001Z,193.36
2023-04-02T03:23:53.059Z,201.81
2023-04-02T03:24:53.147Z,192.60
2023-04-02T03:25:53.170Z,180.10
2023-04-02T03:26:53.243Z,169.60
2023-04-02T03:27:53.295Z,150.93
2023-04-02T03:28:53.359Z,148.67
2023-04-02T03:29:53.430Z,146.36
2023-04-02T03:30:53.539Z,144.37
2023-04-02T03:31:53.553Z,151.04
2023-04-02T03:32:53.645Z,148.60
2023-04-02T03:33:53.638Z,152.74
2023-04-02T03:34:53.685Z,169.23
2023-04-02T03:35:53.748Z,184.08
2023-04-02T03:36:53.769Z,181.16
2023-04-02T03:37:53.814Z,174.47
2023-04-02T03:38:53.860Z,175.57
2023-04-02T03:39:53.922Z,174.84
2023-04-02T03:40:54.022Z,174.19
2023-04-02T03:41:54.057Z,175.72
2023-04-02T03:42:54.135Z,181.83
2023-04-02T03:43:54.219Z,183.38
2023-04-02T03:44:54.298Z,186.51
2023-04-02T03:45:54.350Z,190.80
2023-04-02T03:46:54.448Z,198.83
2023-04-02T03:47:54.515Z,204.07
2023-04-02T03:48:54.569Z,213.75
2023-04-02T03:49:54.609Z,221.18
2023-04-02T03:50:54.692Z,227.87
2023-04-02T03:51:54.746Z,235.25
2023-04-02T03:52:54.778Z,241.28
2023-04-02T03:53:54.829Z,244.62
2023-04-02T03:54:54.862Z,240.24
2023-04-02T03:55:54.907Z,235.80
2023-04-02T03:56:55.056Z,232.79
2023-04-02T03:57:54.974Z,233.76
2023-04-02T03:58:55.002Z,231.46
2023-04-02T03:59:55.026Z,230.14
2023-04-02T04:00:55.045Z,226.67
2023-04-02T04:01:55.129Z,229.92
2023-04-02T04:02:55.160Z,225.15
2023-04-02T04:03:55.122Z,223.53
2023-04-02T04:04:55.138Z,228.96
2023-04-02T04:05:55.174Z,243.74
2023-04-02T04:06:55.192Z,250.67
2023-04-02T04:07:55.229Z,250.21
2023-04-02T04:08:55.269Z,250.00
2023-04-02T04:09:55.325Z,250.00
2023-04-02T04:10:55.378Z,250.00
2023-04-02T04:11:55.378Z,250.38
2023-04-02T04:12:55.429Z,250.00
2023-04-02T04:13:55.434Z,250.00
2023-04-02T04:14:55.496Z,250.00
2023-04-02T04:15:55.525Z,250.00
2023-04-02T04:16:55.699Z,251.45
2023-04-02T04:17:55.577Z,250.00
2023-04-02T04:18:55.577Z,244.01
2023-04-02T04:19:55.622Z,236.82
2023-04-02T04:20:55.671Z,234.07
2023-04-02T04:21:55.697Z,215.33
2023-04-02T04:22:55.921Z,207.81
2023-04-02T04:23:55.769Z,204.13
2023-04-02T04:24:55.811Z,195.61
2023-04-02T04:25:55.855Z,190.40
2023-04-02T04:26:55.874Z,187.89
2023-04-02T04:27:55.908Z,181.92
2023-04-02T04:28:55.958Z,175.56
2023-04-02T04:29:55.953Z,176.47
2023-04-02T04:30:55.981Z,170.44
2023-04-02T04:31:56.183Z,172.22
2023-04-02T04:32:56.062Z,176.33
2023-04-02T04:33:56.039Z,180.13
2023-04-02T04:34:56.055Z,178.28
2023-04-02T04:35:56.154Z,172.70
2023-04-02T04:36:56.109Z,173.72
2023-04-02T04:37:56.130Z,172.84
2023-04-02T04:38:56.153Z,170.04
2023-04-02T04:39:56.181Z,170.76
2023-04-02T04:40:56.203Z,168.83
2023-04-02T04:41:56.250Z,160.83
2023-04-02T04:42:56.280Z,157.09
2023-04-02T04:43:56.320Z,157.57
2023-04-02T04:44:56.372Z,158.57
2023-04-02T04:45:56.426Z,133.89
2023-04-02T04:46:56.418Z,127.83
2023-04-02T04:47:56.508Z,124.62
2023-04-02T04:48:56.454Z,113.87
2023-04-02T04:49:56.503Z,109.56
2023-04-02T04:50:56.522Z,111.98
2023-04-02T04:51:56.560Z,113.92
2023-04-02T04:52:56.754Z,112.60
2023-04-02T04:53:56.626Z,110.83
2023-04-02T04:54:56.658Z,119.29
2023-04-02T04:55:59.678Z,131.66
2023-04-02T04:56:56.718Z,131.96
2023-04-02T04:57:56.717Z,134.06
2023-04-02T04:58:56.724Z,139.87
2023-04-02T04:59:56.732Z,152.16
2023-04-02T05:00:56.760Z,164.48
2023-04-02T05:01:56.796Z,164.67
2023-04-02T05:02:56.773Z,167.16
2023-04-02T05:03:56.793Z,172.26
2023-04-02T05:04:56.878Z,172.55
2023-04-02T05:05:56.794Z,177.60
2023-04-02T05:06:56.823Z,189.50
2023-04-02T05:07:57.929Z,192.71
2023-04-02T05:08:56.861Z,192.37
2023-04-02T05:09:56.886Z,193.04
2023-04-02T05:10:56.905Z,190.19
2023-04-02T05:11:56.948Z,181.60
2023-04-02T05:12:56.953Z,187.92
2023-04-02T05:13:56.968Z,175.41
2023-04-02T05:14:57.017Z,145.17
2023-04-02T05:15:57.776Z,141.01
2023-04-02T05:16:57.076Z,118.78
2023-04-02T05:17:57.088Z,96.99
2023-04-02T05:18:57.094Z,79.13
2023-04-02T05:19:57.130Z,68.78
2023-04-02T05:20:57.124Z,67.72
2023-04-02T05:21:57.159Z,57.13
2023-04-02T05:22:57.177Z,60.54
2023-04-02T05:23:57.211Z,54.09
2023-04-02T05:24:57.253Z,42.48
2023-04-02T05:25:57.263Z,56.38
2023-04-02T05:26:57.299Z,48.12
2023-04-02T05:27:57.326Z,74.25
2023-04-02T05:28:57.387Z,99.21
2023-04-02T05:29:57.383Z,118.99
2023-04-02T05:30:56.487Z,129.68
2023-04-02T05:31:57.449Z,130.83
2023-04-02T05:32:57.623Z,132.48
2023-04-02T05:33:57.508Z,138.77
2023-04-02T05:34:57.528Z,133.28
2023-04-02T05:35:57.643Z,128.13
2023-04-02T05:36:57.582Z,125.04
2023-04-02T05:37:57.609Z,126.89
2023-04-02T05:38:57.647Z,123.82
2023-04-02T05:39:57.655Z,115.14
2023-04-02T05:40:57.668Z,109.54
2023-04-02T05:41:57.693Z,106.04
2023-04-02T05:42:57.712Z,106.15
2023-04-02T05:43:57.730Z,100.80
2023-04-02T05:44:57.738Z,105.73
2023-04-02T05:45:57.752Z,114.36
2023-04-02T05:46:57.810Z,124.45
2023-04-02T05:47:57.825Z,132.43
2023-04-02T05:48:57.828Z,138.90
2023-04-02T05:49:57.810Z,146.02
2023-04-02T05:50:57.826Z,165.27
2023-04-02T05:51:57.926Z,182.73
2023-04-02T05:52:57.864Z,197.88
2023-04-02T05:53:57.914Z,206.11
2023-04-02T05:54:57.946Z,214.94
2023-04-02T05:55:58.008Z,220.92
2023-04-02T05:56:58.038Z,223.60
2023-04-02T05:58:17.704Z,225.16
2023-04-02T05:58:58.317Z,225.20
2023-04-02T05:59:58.077Z,222.80
2023-04-02T06:00:58.087Z,222.98
2023-04-02T06:01:58.162Z,220.01
2023-04-02T06:02:58.182Z,222.75
2023-04-02T06:03:58.171Z,224.38
2023-04-02T06:04:58.149Z,227.61
2023-04-02T06:05:58.124Z,229.63
2023-04-02T06:06:58.127Z,231.25
2023-04-02T06:07:58.152Z,233.20
2023-04-02T06:08:58.149Z,233.04
2023-04-02T06:09:58.155Z,238.68
2023-04-02T06:10:58.176Z,244.42
2023-04-02T06:11:58.168Z,242.90
2023-04-02T06:12:58.175Z,242.34
2023-04-02T06:13:58.202Z,243.83
2023-04-02T06:14:58.203Z,244.04
2023-04-02T06:15:58.217Z,245.01
2023-04-02T06:16:58.279Z,242.20
2023-04-02T06:17:58.279Z,242.59
2023-04-02T06:18:58.258Z,242.44
2023-04-02T06:19:58.263Z,244.64
2023-04-02T06:20:58.319Z,245.50
2023-04-02T06:21:58.288Z,241.59
2023-04-02T06:22:58.291Z,241.73
2023-04-02T06:23:58.308Z,243.19
2023-04-02T06:24:58.312Z,244.30
2023-04-02T06:25:58.347Z,248.49
2023-04-02T06:26:58.409Z,247.43
2023-04-02T06:27:58.491Z,248.78
2023-04-02T06:28:58.537Z,245.83
2023-04-02T06:29:58.582Z,236.73
2023-04-02T06:30:58.694Z,230.82
2023-04-02T06:31:58.674Z,229.66
2023-04-02T06:32:58.757Z,220.41
2023-04-02T06:33:58.732Z,214.48
2023-04-02T06:34:58.771Z,215.67
2023-04-02T06:35:58.845Z,215.63
2023-04-02T06:36:58.823Z,210.18
2023-04-02T06:37:58.825Z,210.12
2023-04-02T06:38:58.841Z,209.24
2023-04-02T06:39:58.857Z,203.70
2023-04-02T06:40:59.176Z,205.30
2023-04-02T06:41:58.844Z,206.51
2023-04-02T06:42:58.864Z,210.32
2023-04-02T06:43:58.889Z,214.56
2023-04-02T06:44:58.848Z,218.07
2023-04-02T06:45:58.941Z,224.87
2023-04-02T06:46:58.847Z,228.89
2023-04-02T06:47:58.968Z,226.73
2023-04-02T06:48:58.838Z,231.14
2023-04-02T06:49:58.833Z,231.63
2023-04-02T06:50:58.835Z,227.77
2023-04-02T06:51:58.844Z,229.08
2023-04-02T06:52:58.924Z,229.71
2023-04-02T06:53:58.936Z,227.34
2023-04-02T06:54:58.980Z,224.46
2023-04-02T06:55:58.980Z,224.39
2023-04-02T06:56:59.081Z,225.93
2023-04-02T06:57:59.053Z,225.66
2023-04-02T06:58:59.104Z,223.90
2023-04-02T06:59:59.149Z,222.45
2023-04-02T07:00:59.200Z,216.37
2023-04-02T07:01:59.262Z,202.54
2023-04-02T07:02:59.319Z,184.41
2023-04-02T07:03:59.361Z,168.82
2023-04-02T07:04:59.426Z,163.19
2023-04-02T07:05:59.445Z,165.90
2023-04-02T07:06:59.476Z,165.45
2023-04-02T07:07:59.524Z,172.88
2023-04-02T07:08:59.583Z,169.55
2023-04-02T07:09:59.586Z,172.82
2023-04-02T07:10:59.609Z,177.61
2023-04-02T07:11:59.626Z,186.24
2023-04-02T07:12:59.644Z,176.69
2023-04-02T07:13:59.692Z,174.38
2023-04-02T07:14:59.709Z,174.70
2023-04-02T07:15:59.787Z,173.42
2023-04-02T07:16:59.760Z,160.82
2023-04-02T07:17:59.811Z,156.73
2023-04-02T07:18:59.802Z,150.99
2023-04-02T07:20:00.229Z,150.47
2023-04-02T07:20:59.857Z,139.78
2023-04-02T07:21:59.875Z,136.49
2023-04-02T07:22:59.912Z,128.39
2023-04-02T07:23:59.924Z,111.16
2023-04-02T07:25:00.023Z,106.48
2023-04-02T07:25:59.999Z,111.32
2023-04-02T07:27:00.031Z,110.13
2023-04-02T07:28:00.060Z,117.25
2023-04-02T07:29:00.031Z,115.71
2023-04-02T07:30:00.030Z,107.78
2023-04-02T07:31:00.005Z,102.68
2023-04-02T07:31:59.976Z,103.40
2023-04-02T07:32:59.984Z,104.84
2023-04-02T07:33:58.921Z,117.27
2023-04-02T07:34:59.942Z,99.40
2023-04-02T07:36:00.005Z,77.43
2023-04-02T07:37:00.009Z,66.36
2023-04-02T07:38:00.021Z,68.01
2023-04-02T07:39:00.040Z,37.83
2023-04-02T07:40:00.017Z,15.70
2023-04-02T07:41:00.105Z,14.97
2023-04-02T07:42:00.080Z,24.90
2023-04-02T07:43:00.074Z,28.39
2023-04-02T07:44:00.079Z,30.14
2023-04-02T07:45:00.144Z,24.13
2023-04-02T07:46:00.170Z,25.19
2023-04-02T07:47:00.303Z,31.72
2023-04-02T07:48:00.231Z,51.16
2023-04-02T07:49:00.188Z,57.84
2023-04-02T07:50:00.205Z,62.87
2023-04-02T07:51:00.208Z,72.05
2023-04-02T07:52:00.203Z,82.82
2023-04-02T07:53:00.175Z,91.29
2023-04-02T07:54:00.162Z,85.95
2023-04-02T07:55:00.157Z,82.20
2023-04-02T07:56:00.144Z,76.92
2023-04-02T07:57:00.210Z,61.96
2023-04-02T07:58:00.180Z,58.87
2023-04-02T07:59:00.156Z,51.66
2023-04-02T08:00:00.178Z,63.17
2023-04-02T08:01:00.162Z,38.57
2023-04-02T08:02:00.215Z,0.00
2023-04-02T08:03:00.201Z,0.00
2023-04-02T08:04:00.169Z,0.00
2023-04-02T08:05:00.073Z,0.16
2023-04-02T08:06:00.040Z,25.19
2023-04-02T08:06:59.986Z,48.87
2023-04-02T08:07:59.952Z,60.19
2023-04-02T08:08:59.870Z,64.96
2023-04-02T08:09:59.823Z,75.33
2023-04-02T08:10:59.802Z,69.88
2023-04-02T08:11:59.742Z,49.73
2023-04-02T08:12:59.715Z,37.70
2023-04-02T08:13:59.681Z,39.73
2023-04-02T08:15:00.028Z,12.22
2023-04-02T08:15:59.639Z,18.56
2023-04-02T08:16:59.729Z,27.78
2023-04-02T08:17:59.685Z,37.22
2023-04-02T08:18:59.668Z,39.83
2023-04-02T08:19:59.663Z,40.27
2023-04-02T08:20:59.694Z,36.46
2023-04-02T08:21:59.665Z,34.63
2023-04-02T08:22:59.680Z,40.34
2023-04-02T08:23:59.702Z,30.96
2023-04-02T08:24:59.668Z,29.47
2023-04-02T08:25:59.640Z,27.92
2023-04-02T08:26:59.618Z,34.14
2023-04-02T08:27:59.572Z,37.75
2023-04-02T08:28:59.566Z,34.54
2023-04-02T08:29:59.498Z,31.25
2023-04-02T08:30:59.527Z,25.10
2023-04-02T08:31:59.448Z,32.00
2023-04-02T08:32:59.468Z,37.10
2023-04-02T08:33:59.393Z,40.64
2023-04-02T08:35:00.452Z,34.02
2023-04-02T08:35:59.404Z,31.70
2023-04-02T08:36:59.312Z,22.97
2023-04-02T08:37:59.270Z,19.03
2023-04-02T08:38:59.256Z,14.73
2023-04-02T08:39:59.268Z,0.00
2023-04-02T08:40:59.282Z,4.36
2023-04-02T08:41:59.241Z,11.99
2023-04-02T08:42:59.192Z,22.59
2023-04-02T08:43:59.177Z,21.09
2023-04-02T08:44:59.228Z,33.20
2023-04-02T08:45:59.213Z,36.63
2023-04-02T08:46:59.189Z,19.19
2023-04-02T08:47:59.247Z,15.44
2023-04-02T08:48:59.169Z,21.75
2023-04-02T08:49:59.116Z,27.74
2023-04-02T08:50:59.072Z,18.27
2023-04-02T08:51:59.053Z,20.63
2023-04-02T08:52:59.019Z,24.12
2023-04-02T08:53:58.954Z,23.53
2023-04-02T08:54:58.914Z,22.27
2023-04-02T08:55:58.889Z,29.43
2023-04-02T08:56:58.858Z,35.28
2023-04-02T08:57:58.766Z,20.24
2023-04-02T08:58:58.737Z,0.00
2023-04-02T08:59:58.720Z,4.10
2023-04-02T09:00:58.740Z,8.16
2023-04-02T09:01:58.818Z,9.87
2023-04-02T09:02:58.723Z,8.72
2023-04-02T09:03:58.690Z,0.00
2023-04-02T09:04:58.677Z,0.00
2023-04-02T09:05:58.652Z,0.00
2023-04-02T09:06:58.695Z,0.00
2023-04-02T09:07:58.641Z,0.00
2023-04-02T09:08:58.634Z,0.00
2023-04-02T09:09:58.656Z,0.00
2023-04-02T09:10:58.625Z,6.39
2023-04-02T09:11:58.616Z,13.80
2023-04-02T09:12:58.616Z,15.64
2023-04-02T09:13:58.578Z,22.11
2023-04-02T09:14:58.706Z,24.38
2023-04-02T09:15:58.554Z,26.29
2023-04-02T09:16:58.548Z,25.37
2023-04-02T09:17:59.612Z,26.77
2023-04-02T09:18:58.505Z,32.25
2023-04-02T09:19:58.489Z,30.00
2023-04-02T09:20:58.474Z,36.65
2023-04-02T09:21:58.445Z,48.54
2023-04-02T09:22:58.430Z,60.46
2023-04-02T09:23:58.410Z,65.52
2023-04-02T09:24:58.393Z,59.37
2023-04-02T09:26:04.121Z,55.76
2023-04-02T09:26:58.324Z,38.06
2023-04-02T09:27:58.241Z,43.47
2023-04-02T09:28:58.166Z,47.07
2023-04-02T09:29:57.091Z,34.88
2023-04-02T09:30:58.024Z,38.91
2023-04-02T09:31:58.053Z,33.20
2023-04-02T09:32:58.001Z,31.01
2023-04-02T09:33:57.852Z,33.23
2023-04-02T09:34:57.764Z,23.80
2023-04-02T09:35:57.882Z,24.19
2023-04-02T09:36:57.637Z,25.28
2023-04-02T09:37:57.554Z,24.28
2023-04-02T09:38:57.558Z,16.64
2023-04-02T09:39:57.507Z,8.97
2023-04-02T09:40:57.473Z,10.68
2023-04-02T09:42:05.148Z,11.26
2023-04-02T09:42:57.374Z,0.00
2023-04-02T09:43:57.513Z,0.00
2023-04-02T09:44:57.210Z,0.00
2023-04-02T09:45:57.122Z,0.00
2023-04-02T09:46:57.083Z,0.00
2023-04-02T09:47:57.033Z,0.00
2023-04-02T09:48:56.936Z,0.00
2023-04-02T09:49:56.846Z,0.00
2023-04-02T09:50:56.752Z,0.00
2023-04-02T09:51:56.678Z,0.00
2023-04-02T09:52:56.612Z,0.00
2023-04-02T09:53:56.552Z,0.00
2023-04-02T09:54:56.513Z,0.00
2023-04-02T09:55:56.411Z,0.87
2023-04-02T09:56:56.360Z,11.09
2023-04-02T09:57:56.282Z,19.21
2023-04-02T09:58:56.215Z,26.27
2023-04-02T09:59:56.143Z,24.77
2023-04-02T10:00:56.089Z,27.51
2023-04-02T10:01:56.065Z,26.94
2023-04-02T10:02:55.910Z,30.70
2023-04-02T10:03:55.841Z,29.84
2023-04-02T10:04:55.764Z,32.50
2023-04-02T10:05:55.660Z,29.50
2023-04-02T10:06:55.597Z,22.91
2023-04-02T10:07:55.551Z,20.54
2023-04-02T10:08:55.538Z,25.26
2023-04-02T10:09:55.488Z,25.71
2023-04-02T10:10:55.476Z,24.76
2023-04-02T10:11:55.448Z,24.55
2023-04-02T10:12:55.400Z,25.00
2023-04-02T10:13:55.372Z,28.47
2023-04-02T10:14:55.331Z,22.29
2023-04-02T10:15:55.286Z,25.81
2023-04-02T10:16:55.290Z,29.54
2023-04-02T10:17:55.234Z,24.37
2023-04-02T10:18:55.224Z,25.02
2023-04-02T10:19:55.191Z,30.00
2023-04-02T10:20:55.160Z,35.66
2023-04-02T10:21:55.088Z,31.97
2023-04-02T10:22:55.076Z,29.81
2023-04-02T10:23:55.106Z,27.87
2023-04-02T10:24:55.100Z,28.59
2023-04-02T10:25:55.068Z,25.58
2023-04-02T10:26:55.076Z,24.37
2023-04-02T10:27:55.063Z,22.34
2023-04-02T10:28:55.056Z,22.02
2023-04-02T10:29:55.072Z,28.44
2023-04-02T10:30:55.116Z,41.77
2023-04-02T10:31:55.118Z,45.44
2023-04-02T10:32:55.130Z,54.01
2023-04-02T10:33:55.147Z,66.52
2023-04-02T10:34:55.175Z,73.83
2023-04-02T10:35:55.246Z,75.08
2023-04-02T10:36:55.202Z,85.19
2023-04-02T10:37:55.191Z,78.51
2023-04-02T10:38:55.227Z,71.05
2023-04-02T10:39:55.253Z,71.93
2023-04-02T10:40:56.952Z,73.66
2023-04-02T10:41:55.203Z,77.61
2023-04-02T10:42:55.190Z,80.93
2023-04-02T10:43:55.906Z,78.73
2023-04-02T10:44:55.203Z,78.89
2023-04-02T10:45:55.226Z,81.38
2023-04-02T10:46:55.189Z,87.59
2023-04-02T10:47:55.230Z,95.65
2023-04-02T10:48:55.213Z,107.90
2023-04-02T10:49:55.174Z,113.63
2023-04-02T10:50:55.205Z,123.83
2023-04-02T10:51:55.184Z,125.76
2023-04-02T10:52:56.521Z,125.46
2023-04-02T10:53:55.294Z,126.03
2023-04-02T10:54:55.335Z,130.06
2023-04-02T10:55:55.396Z,136.48
2023-04-02T10:56:55.458Z,138.60
2023-04-02T10:57:55.441Z,134.81
2023-04-02T10:58:57.323Z,131.58
2023-04-02T10:59:55.517Z,131.30
2023-04-02T11:00:55.542Z,123.57
2023-04-02T11:01:55.639Z,116.31
2023-04-02T11:02:55.646Z,113.08
2023-04-02T11:03:57.874Z,109.03
2023-04-02T11:04:57.198Z,109.06
2023-04-02T11:05:56.969Z,103.06
2023-04-02T11:07:07.225Z,102.62
2023-04-02T11:07:55.709Z,102.20
2023-04-02T11:08:55.747Z,101.09
2023-04-02T11:09:55.698Z,93.79
2023-04-02T11:10:55.705Z,85.22
2023-04-02T11:11:55.687Z,79.01
2023-04-02T11:12:55.687Z,77.29
2023-04-02T11:13:55.672Z,76.09
2023-04-02T11:14:55.664Z,76.35
2023-04-02T11:15:55.722Z,68.95
2023-04-02T11:16:55.672Z,69.63
2023-04-02T11:17:55.712Z,66.90
2023-04-02T11:18:55.681Z,64.06
2023-04-02T11:19:55.655Z,72.04
2023-04-02T11:20:55.667Z,74.25
2023-04-02T11:21:59.375Z,72.70
2023-04-02T11:22:55.838Z,72.76
2023-04-02T11:23:55.640Z,70.68
2023-04-02T11:24:55.662Z,64.72
2023-04-02T11:25:55.632Z,62.47
2023-04-02T11:26:55.619Z,61.88
2023-04-02T11:27:55.601Z,64.28
2023-04-02T11:28:55.593Z,70.60
2023-04-02T11:29:55.590Z,69.46
2023-04-02T11:30:55.594Z,69.02
2023-04-02T11:31:55.615Z,58.91
2023-04-02T11:32:55.592Z,62.61
2023-04-02T11:33:55.561Z,64.04
2023-04-02T11:35:54.643Z,60.61
2023-04-02T11:36:55.541Z,56.93
2023-04-02T11:37:55.547Z,53.92
2023-04-02T11:39:04.428Z,50.53
2023-04-02T11:39:55.507Z,53.12
2023-04-02T11:40:55.530Z,55.24
2023-04-02T11:41:55.479Z,59.82
2023-04-02T11:42:55.465Z,63.80
2023-04-02T11:43:55.485Z,63.65
2023-04-02T11:44:55.460Z,60.47
2023-04-02T11:45:55.815Z,58.98
2023-04-02T11:46:55.548Z,51.96
2023-04-02T11:47:55.532Z,49.12
2023-04-02T11:48:55.472Z,49.33
2023-04-02T11:49:55.491Z,50.17
2023-04-02T11:50:55.464Z,51.73
2023-04-02T11:52:09.104Z,41.74
2023-04-02T11:52:55.452Z,41.74
2023-04-02T11:53:55.426Z,42.43
2023-04-02T11:54:55.432Z,43.45
2023-04-02T11:55:55.426Z,44.76
2023-04-02T11:56:55.467Z,46.48
2023-04-02T11:57:55.392Z,48.63
2023-04-02T11:58:55.382Z,42.40
2023-04-02T11:59:55.371Z,34.51
2023-04-02T12:00:55.359Z,28.39
2023-04-02T12:01:55.404Z,28.22
2023-04-02T12:02:55.793Z,31.40
2023-04-02T12:03:55.345Z,26.97
2023-04-02T12:04:55.366Z,26.41
2023-04-02T12:05:55.317Z,20.90
2023-04-02T12:06:55.301Z,22.28
2023-04-02T12:07:55.278Z,30.74
2023-04-02T12:08:58.091Z,28.30
2023-04-02T12:09:55.237Z,24.77
2023-04-02T12:10:55.213Z,27.71
2023-04-02T12:11:55.216Z,27.55
2023-04-02T12:12:55.201Z,23.75
2023-04-02T12:13:55.152Z,12.88
2023-04-02T12:14:55.130Z,12.96
2023-04-02T12:15:55.100Z,14.23
2023-04-02T12:16:55.120Z,26.84
2023-04-02T12:17:55.108Z,29.21
2023-04-02T12:18:55.048Z,20.40
2023-04-02T12:19:55.012Z,19.35
2023-04-02T12:20:55.012Z,25.02
2023-04-02T12:21:54.992Z,27.46
2023-04-02T12:22:54.970Z,32.40
2023-04-02T12:23:54.932Z,21.76
2023-04-02T12:24:54.913Z,20.55
2023-04-02T12:25:54.893Z,19.77
2023-04-02T12:26:54.856Z,17.51
2023-04-02T12:27:54.844Z,20.70
2023-04-02T12:28:54.853Z,29.14
2023-04-02T12:29:54.832Z,25.84
2023-04-02T12:30:54.870Z,26.18
2023-04-02T12:31:54.907Z,20.28
2023-04-02T12:32:54.851Z,19.41
2023-04-02T12:33:54.875Z,17.83
2023-04-02T12:34:54.835Z,17.66
2023-04-02T12:35:54.881Z,24.56
2023-04-02T12:36:54.872Z,27.60
2023-04-02T12:37:54.908Z,34.79
2023-04-02T12:38:54.919Z,41.01
2023-04-02T12:39:54.970Z,41.24
2023-04-02T12:40:54.940Z,29.82
2023-04-02T12:41:54.953Z,28.05
2023-04-02T12:42:54.965Z,32.35